Carnival Splendor — 3EUS — position and weather

sailwx.info

Track history (hours):
 
Tides and Currents Weather Stations Pressure Air Temp Water Temp Dewpoint Dewpoint Depression Visibility Wind Speed Wind Dir Waves Ship Positions

Carnival Splendor

Last reported at 2015-May-24 14:33 UTC. Time now 2015-May-24 14:54 UTC.
Position N 40°46' W 073°60'.

Length 289 m; draft 8.3 m.

Type: Ship. MMSI: 372808000.

Date/timePositionNaut miles runAvg speedWind from/ knotsBaromVisibWave heightAir tempDewpointWater temp
2015-May-24 14:33N 40°46' W 073°60'0 0.0
2015-May-24 13:34N 40°46' W 073°60'2 1.7
2015-May-24 12:33N 40°45' W 074°01'1010.2
2015-May-24 11:33N 40°34' W 074°02'1313.4
2015-May-24 10:33N 40°26' W 073°48'1717.0
2015-May-24 09:34N 40°09' W 073°45'1717.0
2015-May-24 08:33N 39°53' W 073°42'1414.2
2015-May-24 07:33N 39°39' W 073°46'1919.3
2015-May-24 06:33N 39°21' W 073°56'1615.7
2015-May-24 05:34N 39°07' W 074°04'1817.6
2015-May-24 04:33N 38°51' W 074°14'1817.4
2015-May-24 03:33N 38°35' W 074°25'1817.1
2015-May-24 02:30N 38°19' W 074°35'1617.0
2015-May-24 01:33N 38°05' W 074°44'65813.3
2015-May-22 00:13N 27°52' W 079°31'1722.4
2015-May-21 23:28N 27°36' W 079°29'2222.4
2015-May-21 22:30N 27°14' W 079°26'63 5.3
2015-May-21 10:31N 26°24' W 078°42'5617.0
2015-May-21 07:12N 26°00' W 077°46'61512.1
2015-May-19 04:31N 35°52' W 074°31'  
2015-May-14 21:26N 26°45' W 079°23'  
Track history (hours):
 
Tides and Currents Weather Stations Pressure Air Temp Water Temp Dewpoint Dewpoint Depression Visibility Wind Speed Wind Dir Waves Ship Positions

Carnival Splendor

Last reported at 2015-May-24 14:33 UTC. Time now 2015-May-24 14:54 UTC.
Position N 40°46' W 073°60'.

Length 289 m; draft 8.3 m.

Type: Ship. MMSI: 372808000.

Date/timePositionNaut miles runAvg speedWind from/ knotsBaromVisibWave heightAir tempDewpointWater temp
2015-May-24 14:33N 40°46' W 073°60'0 0.0
2015-May-24 13:34N 40°46' W 073°60'2 1.7
2015-May-24 12:33N 40°45' W 074°01'1010.2
2015-May-24 11:33N 40°34' W 074°02'1313.4
2015-May-24 10:33N 40°26' W 073°48'1717.0
2015-May-24 09:34N 40°09' W 073°45'1717.0
2015-May-24 08:33N 39°53' W 073°42'1414.2
2015-May-24 07:33N 39°39' W 073°46'1919.3
2015-May-24 06:33N 39°21' W 073°56'1615.7
2015-May-24 05:34N 39°07' W 074°04'1817.6
2015-May-24 04:33N 38°51' W 074°14'1817.4
2015-May-24 03:33N 38°35' W 074°25'1817.1
2015-May-24 02:30N 38°19' W 074°35'1617.0
2015-May-24 01:33N 38°05' W 074°44'65813.3
2015-May-22 00:13N 27°52' W 079°31'1722.4
2015-May-21 23:28N 27°36' W 079°29'2222.4
2015-May-21 22:30N 27°14' W 079°26'63 5.3
2015-May-21 10:31N 26°24' W 078°42'5617.0
2015-May-21 07:12N 26°00' W 077°46'61512.1
2015-May-19 04:31N 35°52' W 074°31'  
2015-May-14 21:26N 26°45' W 079°23'  

Dump ship's entire track history